createdAt,value
2018-03-25T00:00:12.427Z,3.90
2018-03-25T00:01:19.209Z,3.90
2018-03-25T00:02:23.504Z,3.90
2018-03-25T00:03:27.731Z,3.90
2018-03-25T00:04:32.755Z,3.90
2018-03-25T00:05:39.620Z,3.90
2018-03-25T00:06:46.636Z,3.90
2018-03-25T00:07:52.438Z,3.80
2018-03-25T00:08:56.649Z,3.90
2018-03-25T00:10:00.897Z,3.90
2018-03-25T00:11:09.429Z,3.90
2018-03-25T00:12:17.749Z,3.90
2018-03-25T00:13:22.424Z,3.80
2018-03-25T00:14:26.656Z,3.80
2018-03-25T00:15:30.903Z,3.80
2018-03-25T00:16:37.846Z,3.80
2018-03-25T00:17:43.039Z,3.80
2018-03-25T00:18:48.659Z,3.80
2018-03-25T00:19:52.886Z,3.80
2018-03-25T00:20:58.899Z,3.70
2018-03-25T00:22:03.646Z,3.70
2018-03-25T00:23:09.349Z,3.70
2018-03-25T00:24:14.170Z,3.70
2018-03-25T00:25:19.026Z,3.70
2018-03-25T00:26:23.268Z,3.80
2018-03-25T00:27:27.483Z,3.70
2018-03-25T00:28:32.534Z,3.70
2018-03-25T00:29:38.726Z,3.70
2018-03-25T00:30:43.731Z,3.70
2018-03-25T00:31:49.258Z,3.70
2018-03-25T00:32:53.461Z,3.70
2018-03-25T00:33:57.659Z,3.70
2018-03-25T00:35:01.874Z,3.70
2018-03-25T00:36:10.155Z,3.60
2018-03-25T00:37:18.492Z,3.60
2018-03-25T00:38:22.990Z,3.60
2018-03-25T00:39:27.196Z,3.60
2018-03-25T00:40:31.400Z,3.60
2018-03-25T00:41:40.045Z,3.60
2018-03-25T00:42:47.762Z,3.60
2018-03-25T00:43:52.368Z,3.50
2018-03-25T00:44:59.372Z,3.50
2018-03-25T00:46:04.277Z,3.50
2018-03-25T00:47:12.988Z,3.60
2018-03-25T00:48:20.191Z,3.50
2018-03-25T00:49:25.230Z,3.50
2018-03-25T00:50:29.729Z,3.50
2018-03-25T00:51:38.467Z,3.50
2018-03-25T00:52:44.206Z,3.40
2018-03-25T00:53:50.124Z,3.50
2018-03-25T00:54:54.348Z,3.40
2018-03-25T00:55:59.332Z,3.40
2018-03-25T00:57:04.482Z,3.40
2018-03-25T00:58:14.524Z,3.40
2018-03-25T00:59:19.988Z,3.40
2018-03-25T01:00:24.211Z,3.40
2018-03-25T01:01:28.452Z,3.30
2018-03-25T01:02:32.907Z,3.30
2018-03-25T01:03:41.356Z,3.30
2018-03-25T01:04:48.361Z,3.20
2018-03-25T01:05:53.800Z,3.20
2018-03-25T01:06:58.053Z,3.20
2018-03-25T01:08:03.450Z,3.10
2018-03-25T01:09:11.061Z,3.10
2018-03-25T01:10:17.389Z,3.10
2018-03-25T01:11:22.782Z,3.10
2018-03-25T01:12:27.008Z,3.10
2018-03-25T01:13:31.710Z,3.10
2018-03-25T01:14:43.145Z,3.10
2018-03-25T01:16:07.247Z,3.10
2018-03-25T01:17:15.642Z,3.00
2018-03-25T01:18:22.677Z,3.00
2018-03-25T01:19:27.677Z,3.00
2018-03-25T01:20:31.909Z,3.00
2018-03-25T01:21:38.889Z,3.00
2018-03-25T01:22:46.437Z,3.00
2018-03-25T01:23:51.324Z,2.90
2018-03-25T01:24:55.580Z,2.90
2018-03-25T01:26:00.564Z,2.90
2018-03-25T01:27:08.595Z,2.90
2018-03-25T01:28:15.982Z,2.80
2018-03-25T01:29:22.710Z,2.90
2018-03-25T01:30:26.949Z,2.90
2018-03-25T01:31:31.219Z,3.00
2018-03-25T01:32:39.142Z,2.90
2018-03-25T01:33:46.407Z,2.90
2018-03-25T01:34:51.743Z,2.90
2018-03-25T01:35:55.987Z,2.90
2018-03-25T01:37:00.178Z,2.90
2018-03-25T01:38:07.742Z,2.90
2018-03-25T01:39:13.993Z,2.80
2018-03-25T01:40:19.625Z,2.80
2018-03-25T01:41:24.256Z,2.80
2018-03-25T01:42:28.460Z,2.80
2018-03-25T01:43:32.765Z,2.90
2018-03-25T01:44:40.860Z,2.90
2018-03-25T01:45:48.033Z,2.90
2018-03-25T01:46:53.056Z,2.90
2018-03-25T01:47:57.353Z,2.90
2018-03-25T01:49:02.390Z,2.90
2018-03-25T01:50:09.898Z,2.80
2018-03-25T01:51:17.616Z,2.80
2018-03-25T01:52:23.176Z,2.80
2018-03-25T01:53:27.386Z,2.80
2018-03-25T01:54:31.954Z,2.80
2018-03-25T01:55:39.580Z,2.80
2018-03-25T01:56:45.751Z,2.80
2018-03-25T01:57:50.828Z,2.80
2018-03-25T01:58:55.076Z,2.70
2018-03-25T01:59:59.328Z,2.80
2018-03-25T02:01:06.460Z,2.70
2018-03-25T02:02:13.553Z,2.80
2018-03-25T02:03:20.194Z,2.70
2018-03-25T02:04:24.923Z,2.80
2018-03-25T02:05:29.147Z,2.80
2018-03-25T02:06:36.081Z,2.90
2018-03-25T02:07:42.428Z,2.90
2018-03-25T02:08:49.842Z,2.80
2018-03-25T02:09:54.056Z,2.80
2018-03-25T02:10:58.275Z,2.80
2018-03-25T02:12:02.544Z,2.90
2018-03-25T02:13:08.997Z,2.80
2018-03-25T02:14:16.892Z,2.80
2018-03-25T02:15:21.671Z,2.80
2018-03-25T02:16:25.884Z,2.90
2018-03-25T02:17:30.136Z,2.80
2018-03-25T02:18:37.349Z,2.80
2018-03-25T02:19:44.362Z,2.80
2018-03-25T02:20:50.403Z,2.80
2018-03-25T02:21:54.678Z,2.80
2018-03-25T02:22:59.680Z,2.80
2018-03-25T02:24:05.516Z,2.80
2018-03-25T02:25:13.077Z,2.80
2018-03-25T02:26:20.037Z,2.80
2018-03-25T02:27:24.229Z,2.80
2018-03-25T02:28:29.206Z,2.80
2018-03-25T02:29:35.730Z,2.80
2018-03-25T02:30:41.876Z,2.80
2018-03-25T02:31:49.473Z,2.80
2018-03-25T02:32:54.875Z,2.90
2018-03-25T02:33:59.081Z,2.90
2018-03-25T02:35:03.405Z,2.90
2018-03-25T02:36:11.196Z,2.90
2018-03-25T02:37:17.997Z,2.90
2018-03-25T02:38:22.706Z,3.00
2018-03-25T02:39:26.913Z,3.00
2018-03-25T02:40:31.152Z,3.10
2018-03-25T02:41:39.183Z,3.10
2018-03-25T02:42:45.851Z,3.10
2018-03-25T02:43:51.578Z,3.10
2018-03-25T02:44:55.814Z,3.10
2018-03-25T02:46:00.006Z,3.20
2018-03-25T02:47:06.206Z,3.20
2018-03-25T02:48:13.150Z,3.10
2018-03-25T02:49:20.402Z,3.10
2018-03-25T02:50:24.841Z,3.10
2018-03-25T02:51:29.027Z,3.20
2018-03-25T02:52:36.319Z,3.20
2018-03-25T02:53:43.517Z,3.20
2018-03-25T02:54:50.227Z,3.10
2018-03-25T02:55:54.579Z,3.10
2018-03-25T02:56:58.794Z,3.10
2018-03-25T02:58:03.147Z,3.10
2018-03-25T02:59:10.322Z,3.10
2018-03-25T03:00:17.505Z,3.10
2018-03-25T03:01:23.032Z,3.10
2018-03-25T03:02:27.274Z,3.10
2018-03-25T03:03:31.480Z,3.20
2018-03-25T03:04:39.640Z,3.20
2018-03-25T03:05:46.670Z,3.20
2018-03-25T03:06:53.661Z,3.20
2018-03-25T03:07:58.650Z,3.20
2018-03-25T03:09:03.071Z,3.30
2018-03-25T03:10:09.923Z,3.30
2018-03-25T03:11:16.640Z,3.30
2018-03-25T03:12:22.904Z,3.20
2018-03-25T03:13:27.158Z,3.30
2018-03-25T03:14:31.351Z,3.30
2018-03-25T03:15:42.271Z,3.30
2018-03-25T03:16:48.151Z,3.30
2018-03-25T03:17:52.636Z,3.30
2018-03-25T03:18:56.890Z,3.30
2018-03-25T03:20:01.848Z,3.30
2018-03-25T03:21:10.112Z,3.30
2018-03-25T03:22:16.511Z,3.30
2018-03-25T03:23:21.840Z,3.40
2018-03-25T03:24:26.092Z,3.40
2018-03-25T03:25:30.295Z,3.40
2018-03-25T03:26:35.329Z,3.40
2018-03-25T03:27:42.178Z,3.40
2018-03-25T03:28:48.024Z,3.40
2018-03-25T03:29:52.667Z,3.40
2018-03-25T03:30:56.869Z,3.40
2018-03-25T03:32:01.069Z,3.40
2018-03-25T03:33:09.226Z,3.40
2018-03-25T03:34:17.678Z,3.50
2018-03-25T03:35:23.042Z,3.50
2018-03-25T03:36:27.246Z,3.50
2018-03-25T03:37:31.448Z,3.50
2018-03-25T03:38:38.184Z,3.50
2018-03-25T03:39:46.076Z,3.60
2018-03-25T03:40:50.748Z,3.60
2018-03-25T03:41:55.196Z,3.70
2018-03-25T03:42:59.384Z,3.60
2018-03-25T03:44:06.728Z,3.70
2018-03-25T03:45:17.482Z,3.80
2018-03-25T03:46:22.757Z,3.80
2018-03-25T03:47:26.968Z,3.80
2018-03-25T03:48:31.555Z,3.80
2018-03-25T03:49:41.614Z,3.80
2018-03-25T03:50:48.886Z,3.80
2018-03-25T03:51:54.097Z,3.80
2018-03-25T03:52:59.076Z,3.80
2018-03-25T03:54:03.526Z,3.70
2018-03-25T03:55:14.478Z,3.70
2018-03-25T03:56:20.982Z,3.70
2018-03-25T03:57:25.962Z,3.70
2018-03-25T03:58:30.419Z,3.70
2018-03-25T03:59:39.489Z,3.70
2018-03-25T04:00:47.724Z,3.70
2018-03-25T04:01:52.446Z,3.70
2018-03-25T04:02:56.668Z,3.80
2018-03-25T04:04:00.867Z,3.80
2018-03-25T04:05:06.185Z,3.90
2018-03-25T04:06:12.536Z,3.80
2018-03-25T04:07:18.355Z,3.80
2018-03-25T04:08:23.618Z,3.80
2018-03-25T04:09:27.808Z,3.80
2018-03-25T04:10:32.026Z,3.80
2018-03-25T04:11:39.362Z,3.80
2018-03-25T04:12:46.944Z,3.80
2018-03-25T04:13:52.555Z,3.80
2018-03-25T04:14:56.769Z,3.80
2018-03-25T04:16:00.962Z,3.80
2018-03-25T04:17:07.977Z,3.90
2018-03-25T04:18:14.688Z,3.90
2018-03-25T04:19:20.135Z,3.90
2018-03-25T04:20:24.346Z,3.90
2018-03-25T04:21:29.314Z,3.90
2018-03-25T04:22:36.885Z,3.90
2018-03-25T04:23:44.213Z,3.90
2018-03-25T04:24:50.897Z,3.90
2018-03-25T04:25:55.883Z,4.00
2018-03-25T04:27:00.079Z,3.90
2018-03-25T04:28:05.375Z,3.90
2018-03-25T04:29:11.184Z,4.00
2018-03-25T04:30:17.228Z,3.90
2018-03-25T04:31:22.554Z,3.90
2018-03-25T04:32:26.734Z,3.90
2018-03-25T04:33:32.104Z,3.90
2018-03-25T04:34:39.581Z,3.90
2018-03-25T04:35:45.728Z,3.90
2018-03-25T04:36:51.311Z,4.00
2018-03-25T04:37:55.498Z,4.00
2018-03-25T04:38:59.754Z,4.00
2018-03-25T04:40:05.556Z,4.00
2018-03-25T04:41:13.440Z,4.00
2018-03-25T04:42:19.124Z,4.00
2018-03-25T04:43:23.318Z,4.10
2018-03-25T04:44:27.925Z,4.10
2018-03-25T04:45:32.114Z,4.10
2018-03-25T04:46:39.938Z,4.10
2018-03-25T04:47:46.091Z,4.10
2018-03-25T04:48:50.708Z,4.10
2018-03-25T04:49:55.027Z,4.10
2018-03-25T04:50:59.233Z,4.10
2018-03-25T04:52:04.368Z,4.10
2018-03-25T04:53:11.065Z,4.10
2018-03-25T04:54:18.860Z,4.00
2018-03-25T04:55:23.086Z,4.00
2018-03-25T04:56:27.350Z,4.00
2018-03-25T04:57:31.575Z,4.00
2018-03-25T04:58:38.607Z,4.10
2018-03-25T04:59:45.708Z,4.10
2018-03-25T05:00:51.843Z,4.10
2018-03-25T05:01:56.083Z,4.10
2018-03-25T05:03:00.293Z,4.20
2018-03-25T05:04:07.173Z,4.20
2018-03-25T05:05:15.529Z,4.20
2018-03-25T05:06:20.509Z,4.20
2018-03-25T05:07:24.714Z,4.30
2018-03-25T05:08:28.906Z,4.30
2018-03-25T05:09:35.338Z,4.30
2018-03-25T05:10:41.710Z,4.30
2018-03-25T05:11:48.775Z,4.30
2018-03-25T05:12:53.041Z,4.30
2018-03-25T05:13:57.229Z,4.30
2018-03-25T05:15:02.256Z,4.20
2018-03-25T05:16:10.057Z,4.20
2018-03-25T05:17:16.757Z,4.20
2018-03-25T05:18:21.385Z,4.20
2018-03-25T05:19:25.592Z,4.20
2018-03-25T05:20:29.811Z,4.20
2018-03-25T05:21:35.765Z,4.20
2018-03-25T05:22:44.272Z,4.20
2018-03-25T05:23:50.278Z,4.20
2018-03-25T05:24:55.233Z,4.10
2018-03-25T05:25:59.475Z,4.10
2018-03-25T05:27:04.242Z,4.10
2018-03-25T05:28:11.107Z,4.10
2018-03-25T05:29:18.085Z,4.10
2018-03-25T05:30:23.186Z,4.10
2018-03-25T05:31:27.738Z,4.10
2018-03-25T05:32:32.710Z,4.00
2018-03-25T05:33:41.129Z,4.00
2018-03-25T05:34:48.138Z,4.00
2018-03-25T05:35:52.636Z,4.00
2018-03-25T05:36:56.891Z,4.00
2018-03-25T05:38:01.864Z,4.20
2018-03-25T05:39:09.081Z,4.10
2018-03-25T05:40:15.131Z,4.20
2018-03-25T05:41:20.482Z,4.20
2018-03-25T05:42:25.516Z,4.10
2018-03-25T05:43:30.483Z,4.10
2018-03-25T05:44:37.682Z,4.10
2018-03-25T05:45:42.995Z,4.10
2018-03-25T05:46:47.889Z,4.10
2018-03-25T05:47:52.722Z,4.10
2018-03-25T05:48:57.682Z,4.10
2018-03-25T05:50:01.867Z,4.10
2018-03-25T05:51:09.383Z,4.10
2018-03-25T05:52:16.002Z,4.10
2018-03-25T05:53:21.644Z,4.00
2018-03-25T05:54:25.852Z,4.00
2018-03-25T05:55:30.042Z,4.00
2018-03-25T05:56:35.516Z,4.00
2018-03-25T05:57:42.763Z,4.00
2018-03-25T05:58:49.739Z,3.90
2018-03-25T05:59:53.970Z,3.90
2018-03-25T06:00:58.958Z,4.00
2018-03-25T06:02:03.293Z,4.00
2018-03-25T06:03:11.113Z,3.90
2018-03-25T06:04:17.926Z,4.00
2018-03-25T06:05:22.637Z,4.00
2018-03-25T06:06:26.834Z,4.00
2018-03-25T06:07:31.803Z,4.00
2018-03-25T06:08:38.695Z,4.10
2018-03-25T06:09:44.090Z,4.00
2018-03-25T06:10:49.669Z,4.10
2018-03-25T06:11:53.907Z,4.10
2018-03-25T06:12:58.889Z,4.10
2018-03-25T06:14:03.220Z,4.10
2018-03-25T06:15:09.064Z,4.10
2018-03-25T06:16:22.307Z,4.10
2018-03-25T06:17:26.516Z,4.10
2018-03-25T06:18:30.726Z,4.20
2018-03-25T06:19:39.234Z,4.20
2018-03-25T06:20:49.426Z,4.20
2018-03-25T06:21:54.088Z,4.20
2018-03-25T06:22:58.274Z,4.20
2018-03-25T06:25:23.789Z,4.30
2018-03-25T06:26:28.751Z,4.30
2018-03-25T06:27:33.076Z,4.30
2018-03-25T06:28:42.512Z,4.40
2018-03-25T06:29:48.271Z,4.40
2018-03-25T06:30:52.670Z,4.40
2018-03-25T06:31:56.867Z,4.40
2018-03-25T06:33:01.068Z,4.50
2018-03-25T06:34:07.482Z,4.50
2018-03-25T06:35:13.707Z,4.40
2018-03-25T06:36:22.699Z,4.50
2018-03-25T06:37:27.683Z,4.60
2018-03-25T06:38:31.877Z,4.50
2018-03-25T06:39:38.545Z,4.60
2018-03-25T06:40:46.143Z,4.70
2018-03-25T06:41:52.365Z,4.70
2018-03-25T06:43:03.698Z,4.80
2018-03-25T06:44:11.335Z,4.80
2018-03-25T06:45:16.607Z,4.90
2018-03-25T06:46:21.508Z,4.90
2018-03-25T06:47:26.499Z,5.00
2018-03-25T06:48:31.578Z,5.00
2018-03-25T06:49:38.204Z,5.10
2018-03-25T06:50:49.964Z,5.10
2018-03-25T06:51:54.275Z,5.20
2018-03-25T06:52:58.471Z,5.20
2018-03-25T06:54:03.934Z,5.40
2018-03-25T06:55:10.737Z,5.40
2018-03-25T06:56:17.373Z,5.50
2018-03-25T06:57:22.428Z,5.40
2018-03-25T06:58:26.631Z,5.40
2018-03-25T06:59:30.814Z,5.40
2018-03-25T07:00:37.443Z,5.50
2018-03-25T07:01:44.016Z,5.50
2018-03-25T07:02:49.101Z,5.60
2018-03-25T07:03:53.625Z,5.60
2018-03-25T07:04:57.836Z,5.60
2018-03-25T07:06:02.057Z,5.60
2018-03-25T07:07:09.588Z,5.70
2018-03-25T07:08:15.584Z,5.60
2018-03-25T07:09:20.509Z,5.70
2018-03-25T07:10:24.719Z,5.70
2018-03-25T07:11:28.924Z,5.70
2018-03-25T07:12:33.297Z,5.70
2018-03-25T07:13:39.326Z,5.80
2018-03-25T07:14:44.414Z,5.80
2018-03-25T07:15:49.622Z,5.90
2018-03-25T07:16:54.164Z,5.90
2018-03-25T07:17:58.367Z,6.00
2018-03-25T07:19:04.264Z,6.10
2018-03-25T07:20:10.850Z,6.10
2018-03-25T07:21:19.001Z,6.10
2018-03-25T07:22:23.394Z,6.10
2018-03-25T07:23:28.364Z,6.10
2018-03-25T07:24:32.571Z,6.20
2018-03-25T07:25:38.436Z,6.30
2018-03-25T07:26:43.322Z,6.20
2018-03-25T07:27:48.385Z,6.30
2018-03-25T07:28:52.578Z,6.30
2018-03-25T07:29:56.793Z,6.30
2018-03-25T07:31:01.052Z,6.40
2018-03-25T07:32:05.904Z,6.40
2018-03-25T07:33:11.106Z,6.40
2018-03-25T07:34:20.295Z,6.40
2018-03-25T07:35:24.556Z,6.40
2018-03-25T07:36:28.816Z,6.50
2018-03-25T07:37:33.098Z,6.50
2018-03-25T07:38:40.792Z,6.50
2018-03-25T07:39:45.809Z,6.60
2018-03-25T07:40:51.428Z,6.60
2018-03-25T07:41:56.084Z,6.70
2018-03-25T07:43:01.051Z,6.70
2018-03-25T07:44:08.653Z,6.70
2018-03-25T07:45:16.338Z,6.80
2018-03-25T07:46:21.995Z,7.00
2018-03-25T07:47:26.239Z,7.00
2018-03-25T07:48:30.430Z,7.00
2018-03-25T07:49:35.691Z,7.00
2018-03-25T07:50:42.297Z,7.10
2018-03-25T07:51:48.431Z,7.10
2018-03-25T07:52:53.265Z,7.10
2018-03-25T07:53:58.314Z,7.20
2018-03-25T07:55:02.541Z,7.20
2018-03-25T07:56:08.137Z,7.30
2018-03-25T07:57:13.061Z,7.30
2018-03-25T07:58:17.467Z,7.30
2018-03-25T07:59:21.692Z,7.30
2018-03-25T08:00:26.666Z,7.50
2018-03-25T08:01:30.876Z,7.40
2018-03-25T08:02:36.702Z,7.50
2018-03-25T08:03:41.277Z,7.50
2018-03-25T08:04:45.957Z,7.50
2018-03-25T08:05:51.081Z,7.50
2018-03-25T08:06:55.289Z,7.40
2018-03-25T08:07:59.517Z,7.50
2018-03-25T08:09:05.616Z,7.60
2018-03-25T08:10:12.327Z,7.60
2018-03-25T08:11:17.464Z,7.60
2018-03-25T08:12:22.016Z,7.60
2018-03-25T08:13:27.420Z,7.60
2018-03-25T08:14:31.629Z,7.60
2018-03-25T08:15:38.451Z,7.70
2018-03-25T08:16:44.730Z,7.70
2018-03-25T08:17:50.287Z,7.70
2018-03-25T08:18:54.519Z,7.80
2018-03-25T08:19:58.721Z,7.90
2018-03-25T08:21:02.948Z,7.90
2018-03-25T08:22:08.289Z,7.90
2018-03-25T08:23:15.080Z,8.10
2018-03-25T08:24:20.511Z,8.10
2018-03-25T08:25:24.723Z,8.10
2018-03-25T08:26:28.921Z,8.20
2018-03-25T08:27:36.097Z,8.30
2018-03-25T08:28:42.913Z,8.30
2018-03-25T08:29:49.081Z,8.50
2018-03-25T08:30:54.155Z,8.50
2018-03-25T08:31:58.390Z,8.50
2018-03-25T08:33:02.623Z,8.50
2018-03-25T08:34:10.599Z,8.70
2018-03-25T08:35:16.197Z,8.60
2018-03-25T08:36:20.836Z,8.70
2018-03-25T08:37:25.041Z,8.90
2018-03-25T08:38:29.271Z,8.90
2018-03-25T08:39:33.636Z,8.90
2018-03-25T08:40:40.793Z,8.90
2018-03-25T08:41:45.972Z,8.90
2018-03-25T08:42:51.252Z,8.90
2018-03-25T08:43:55.513Z,8.90
2018-03-25T08:44:59.726Z,8.90
2018-03-25T08:46:04.707Z,8.90
2018-03-25T08:47:12.782Z,9.00
2018-03-25T08:48:19.539Z,9.10
2018-03-25T08:49:23.764Z,9.00
2018-03-25T08:52:02.829Z,9.30
2018-03-25T08:53:11.084Z,9.50
2018-03-25T08:54:16.638Z,9.50
2018-03-25T08:55:21.316Z,9.50
2018-03-25T08:56:26.295Z,9.60
2018-03-25T08:57:30.495Z,9.60
2018-03-25T08:58:38.810Z,9.60
2018-03-25T08:59:44.399Z,9.70
2018-03-25T09:00:49.837Z,9.70
2018-03-25T09:01:54.150Z,9.70
2018-03-25T09:02:58.346Z,9.80
2018-03-25T09:04:02.655Z,9.80
2018-03-25T09:05:09.645Z,9.90
2018-03-25T09:06:16.620Z,10.00
2018-03-25T09:07:21.429Z,10.00
2018-03-25T09:08:25.635Z,9.90
2018-03-25T09:09:29.866Z,9.90
2018-03-25T09:10:35.102Z,9.90
2018-03-25T09:11:40.812Z,9.90
2018-03-25T09:12:47.068Z,9.90
2018-03-25T09:13:52.286Z,9.90
2018-03-25T09:14:56.553Z,9.90
2018-03-25T09:16:00.777Z,10.00
2018-03-25T09:17:07.756Z,10.20
2018-03-25T09:18:13.172Z,10.10
2018-03-25T09:19:19.439Z,10.30
2018-03-25T09:20:24.480Z,10.40
2018-03-25T09:21:29.468Z,10.50
2018-03-25T09:22:34.311Z,10.50
2018-03-25T09:23:40.278Z,10.60
2018-03-25T09:24:45.536Z,10.60
2018-03-25T09:25:51.441Z,10.60
2018-03-25T09:26:55.664Z,10.60
2018-03-25T09:27:59.951Z,10.60
2018-03-25T09:29:04.948Z,10.60
2018-03-25T09:30:10.855Z,10.60
2018-03-25T09:31:16.300Z,10.60
2018-03-25T09:32:21.282Z,10.50
2018-03-25T09:33:25.698Z,10.50
2018-03-25T09:34:29.903Z,10.50
2018-03-25T09:35:37.468Z,10.40
2018-03-25T09:36:43.500Z,10.50
2018-03-25T09:37:49.658Z,10.50
2018-03-25T09:38:53.908Z,10.50
2018-03-25T09:39:58.131Z,10.70
2018-03-25T09:41:02.357Z,10.80
2018-03-25T09:42:10.202Z,10.90
2018-03-25T09:43:15.043Z,10.80
2018-03-25T09:44:20.253Z,10.90
2018-03-25T09:45:25.278Z,11.00
2018-03-25T09:46:30.280Z,11.10
2018-03-25T09:47:36.032Z,11.10
2018-03-25T09:48:42.828Z,11.10
2018-03-25T09:49:49.421Z,11.00
2018-03-25T09:50:54.605Z,11.10
2018-03-25T09:51:59.196Z,11.00
2018-03-25T09:53:04.311Z,11.10
2018-03-25T09:54:12.175Z,11.10
2018-03-25T09:55:18.042Z,11.10
2018-03-25T09:56:23.233Z,11.10
2018-03-25T09:57:27.494Z,11.10
2018-03-25T09:58:34.200Z,11.10
2018-03-25T09:59:44.748Z,11.00
2018-03-25T10:00:49.499Z,11.00
2018-03-25T10:01:53.773Z,11.00
2018-03-25T10:03:00.252Z,11.00
2018-03-25T10:04:05.936Z,11.00
2018-03-25T10:05:12.801Z,11.10
2018-03-25T10:06:20.875Z,11.10
2018-03-25T10:07:25.655Z,11.10
2018-03-25T10:08:29.914Z,11.20
2018-03-25T10:09:34.841Z,11.30
2018-03-25T10:10:43.945Z,11.30
2018-03-25T10:11:49.755Z,11.40
2018-03-25T10:12:54.137Z,11.40
2018-03-25T10:13:58.743Z,11.50
2018-03-25T10:15:02.942Z,11.50
2018-03-25T10:16:10.718Z,11.60
2018-03-25T10:17:15.151Z,11.60
2018-03-25T10:18:20.883Z,11.70
2018-03-25T10:19:25.271Z,11.80
2018-03-25T10:20:29.479Z,11.90
2018-03-25T10:21:36.558Z,12.10
2018-03-25T10:22:46.712Z,12.20
2018-03-25T10:23:51.021Z,12.20
2018-03-25T10:24:56.026Z,12.20
2018-03-25T10:26:00.263Z,12.20
2018-03-25T10:27:07.419Z,12.40
2018-03-25T10:28:15.920Z,12.30
2018-03-25T10:29:22.276Z,12.30
2018-03-25T10:30:26.502Z,12.30
2018-03-25T10:31:30.738Z,12.30
2018-03-25T10:32:38.986Z,12.40
2018-03-25T10:33:45.038Z,12.30
2018-03-25T10:34:51.450Z,12.40
2018-03-25T10:35:55.766Z,12.30
2018-03-25T10:36:59.979Z,12.30
2018-03-25T10:38:05.835Z,12.30
2018-03-25T10:39:14.032Z,12.20
2018-03-25T10:40:21.697Z,12.20
2018-03-25T10:41:25.933Z,12.20
2018-03-25T10:42:30.143Z,12.10
2018-03-25T10:43:35.307Z,12.10
2018-03-25T10:44:44.154Z,12.20
2018-03-25T10:45:50.898Z,12.20
2018-03-25T10:46:55.188Z,12.20
2018-03-25T10:47:59.397Z,12.20
2018-03-25T10:49:08.893Z,12.20
2018-03-25T10:50:15.774Z,12.20
2018-03-25T10:51:21.808Z,12.20
2018-03-25T10:52:26.100Z,12.40
2018-03-25T10:53:30.370Z,12.60
2018-03-25T10:54:35.941Z,12.60
2018-03-25T10:55:44.094Z,12.40
2018-03-25T10:56:50.763Z,12.40
2018-03-25T10:57:55.857Z,12.30
2018-03-25T10:59:00.077Z,12.30
2018-03-25T11:00:06.660Z,12.20
2018-03-25T11:01:13.383Z,12.40
2018-03-25T11:02:19.337Z,12.40
2018-03-25T11:03:24.401Z,12.50
2018-03-25T11:04:28.603Z,12.50
2018-03-25T11:05:32.906Z,12.50
2018-03-25T11:06:39.515Z,12.50
2018-03-25T11:07:45.411Z,12.50
2018-03-25T11:08:49.871Z,12.50
2018-03-25T11:09:54.081Z,12.50
2018-03-25T11:10:58.282Z,12.40
2018-03-25T11:12:02.533Z,12.40
2018-03-25T11:13:08.318Z,12.50
2018-03-25T11:14:13.099Z,12.50
2018-03-25T11:15:18.264Z,12.60
2018-03-25T11:16:23.243Z,12.60
2018-03-25T11:17:27.462Z,12.60
2018-03-25T11:18:31.665Z,12.60
2018-03-25T11:19:38.394Z,12.50
2018-03-25T11:20:43.100Z,12.50
2018-03-25T11:21:49.196Z,12.60
2018-03-25T11:22:53.446Z,12.60
2018-03-25T11:23:57.668Z,12.60
2018-03-25T11:25:01.888Z,12.60
2018-03-25T11:26:07.364Z,12.60
2018-03-25T11:27:13.451Z,12.70
2018-03-25T11:28:20.345Z,12.80
2018-03-25T11:29:24.558Z,12.80
2018-03-25T11:30:28.784Z,12.90
2018-03-25T11:31:33.004Z,12.80
2018-03-25T11:32:37.721Z,12.70
2018-03-25T11:33:45.544Z,12.50
2018-03-25T11:34:50.755Z,12.50
2018-03-25T11:35:54.965Z,12.50
2018-03-25T11:36:59.968Z,12.40
2018-03-25T11:38:05.792Z,12.40
2018-03-25T11:39:15.617Z,12.30
2018-03-25T11:40:22.096Z,12.30
2018-03-25T11:41:26.304Z,12.30
2018-03-25T11:42:30.510Z,12.40
2018-03-25T11:43:37.236Z,12.50
2018-03-25T11:44:45.360Z,12.60
2018-03-25T11:45:50.353Z,12.70
2018-03-25T11:46:54.576Z,12.60
2018-03-25T11:47:59.542Z,12.40
2018-03-25T11:49:05.600Z,12.30
2018-03-25T11:50:12.361Z,12.30
2018-03-25T11:51:19.219Z,12.10
2018-03-25T11:52:24.852Z,12.20
2018-03-25T11:53:29.823Z,12.20
2018-03-25T11:54:35.344Z,12.20
2018-03-25T11:55:40.856Z,12.20
2018-03-25T11:56:45.845Z,12.10
2018-03-25T11:57:50.451Z,12.10
2018-03-25T11:58:54.661Z,12.20
2018-03-25T11:59:59.717Z,12.20
2018-03-25T12:01:04.528Z,12.20
2018-03-25T12:02:11.175Z,12.30
2018-03-25T12:03:18.386Z,12.00
2018-03-25T12:04:23.081Z,12.00
2018-03-25T12:05:27.344Z,11.90
2018-03-25T12:06:31.556Z,12.00
2018-03-25T12:07:37.833Z,12.00
2018-03-25T12:08:44.020Z,12.00
2018-03-25T12:09:49.946Z,12.00
2018-03-25T12:10:54.984Z,12.10
2018-03-25T12:11:59.200Z,12.10
2018-03-25T12:13:04.630Z,12.20
2018-03-25T12:14:12.928Z,12.30
2018-03-25T12:15:20.547Z,12.50
2018-03-25T12:16:24.809Z,12.60
2018-03-25T12:17:29.088Z,12.80
2018-03-25T12:18:34.072Z,12.90
2018-03-25T12:19:44.810Z,12.90
2018-03-25T12:20:52.108Z,12.90
2018-03-25T12:21:57.492Z,13.10
2018-03-25T12:23:01.711Z,13.10
2018-03-25T12:24:08.225Z,13.20
2018-03-25T12:25:13.503Z,13.20
2018-03-25T12:26:19.687Z,13.30
2018-03-25T12:27:24.358Z,13.40
2018-03-25T12:28:28.612Z,13.60
2018-03-25T12:29:33.021Z,13.80
2018-03-25T12:30:42.874Z,13.80
2018-03-25T12:31:49.007Z,13.80
2018-03-25T12:32:54.259Z,13.70
2018-03-25T12:33:58.458Z,13.70
2018-03-25T12:35:02.800Z,13.70
2018-03-25T12:36:07.345Z,13.70
2018-03-25T12:37:15.383Z,13.80
2018-03-25T12:38:22.060Z,13.80
2018-03-25T12:39:26.272Z,13.80
2018-03-25T12:40:30.551Z,13.80
2018-03-25T12:41:38.496Z,13.90
2018-03-25T12:42:46.195Z,13.80
2018-03-25T12:43:51.404Z,13.90
2018-03-25T12:44:56.105Z,13.80
2018-03-25T12:46:00.374Z,13.70
2018-03-25T12:47:06.210Z,13.60
2018-03-25T12:48:13.672Z,13.60
2018-03-25T12:49:19.002Z,13.60
2018-03-25T12:50:24.316Z,13.40
2018-03-25T12:51:29.365Z,13.30
2018-03-25T12:52:35.398Z,13.30
2018-03-25T12:53:43.180Z,13.30
2018-03-25T12:54:49.278Z,13.30
2018-03-25T12:55:54.464Z,13.20
2018-03-25T12:56:59.038Z,13.10
2018-03-25T12:58:03.329Z,13.00
2018-03-25T12:59:12.507Z,12.90
2018-03-25T13:00:17.795Z,12.90
2018-03-25T13:01:22.199Z,13.00
2018-03-25T13:02:26.459Z,13.10
2018-03-25T13:03:30.671Z,13.20
2018-03-25T13:04:37.628Z,13.30
2018-03-25T13:05:46.747Z,13.30
2018-03-25T13:06:52.620Z,13.20
2018-03-25T13:07:57.251Z,13.20
2018-03-25T13:09:01.461Z,13.10
2018-03-25T13:10:07.348Z,13.00
2018-03-25T13:11:15.180Z,12.90
2018-03-25T13:12:20.633Z,12.90
2018-03-25T13:13:25.231Z,12.80
2018-03-25T13:14:29.452Z,12.60
2018-03-25T13:15:35.136Z,12.60
2018-03-25T13:16:42.980Z,12.30
2018-03-25T13:17:49.359Z,12.40
2018-03-25T13:18:55.090Z,12.40
2018-03-25T13:19:59.313Z,12.50
2018-03-25T13:21:03.743Z,12.60
2018-03-25T13:22:12.659Z,12.70
2018-03-25T13:23:19.929Z,12.70
2018-03-25T13:24:24.182Z,12.80
2018-03-25T13:25:28.392Z,13.00
2018-03-25T13:26:32.652Z,12.90
2018-03-25T13:27:39.161Z,13.20
2018-03-25T13:28:44.781Z,13.30
2018-03-25T13:29:51.204Z,13.30
2018-03-25T13:30:55.831Z,13.30
2018-03-25T13:32:00.053Z,13.40
2018-03-25T13:33:05.497Z,13.50
2018-03-25T13:34:12.459Z,13.40
2018-03-25T13:35:19.911Z,13.40
2018-03-25T13:36:25.270Z,13.50
2018-03-25T13:37:30.290Z,13.40
2018-03-25T13:38:38.668Z,13.40
2018-03-25T13:39:46.917Z,13.50
2018-03-25T13:40:52.873Z,13.50
2018-03-25T13:41:57.881Z,13.50
2018-03-25T13:43:02.187Z,13.50
2018-03-25T13:44:10.848Z,13.50
2018-03-25T13:45:17.559Z,13.40
2018-03-25T13:46:22.205Z,13.40
2018-03-25T13:47:27.211Z,13.20
2018-03-25T13:48:31.891Z,13.20
2018-03-25T13:49:38.942Z,13.10
2018-03-25T13:50:43.641Z,13.10
2018-03-25T13:51:52.539Z,13.10
2018-03-25T13:52:56.761Z,13.10
2018-03-25T13:54:01.025Z,13.10
2018-03-25T13:55:07.069Z,13.00
2018-03-25T13:56:11.957Z,13.10
2018-03-25T13:57:16.651Z,13.10
2018-03-25T13:58:20.902Z,13.10
2018-03-25T13:59:25.181Z,13.10
2018-03-25T14:00:29.438Z,13.00
2018-03-25T14:01:35.097Z,12.70
2018-03-25T14:02:39.585Z,12.70
2018-03-25T14:03:43.960Z,12.70
2018-03-25T14:04:49.104Z,12.80
2018-03-25T14:05:53.372Z,12.80
2018-03-25T14:06:58.358Z,12.90
2018-03-25T14:08:02.577Z,12.80
2018-03-25T14:09:08.839Z,12.80
2018-03-25T14:10:14.081Z,12.80
2018-03-25T14:11:18.334Z,12.90
2018-03-25T14:12:22.549Z,13.00
2018-03-25T14:13:26.792Z,13.10
2018-03-25T14:14:31.013Z,13.00
2018-03-25T14:15:36.397Z,13.10
2018-03-25T14:16:42.140Z,13.10
2018-03-25T14:17:46.452Z,12.90
2018-03-25T14:18:51.449Z,12.80
2018-03-25T14:19:55.668Z,12.80
2018-03-25T14:20:59.908Z,12.80
2018-03-25T14:22:04.266Z,12.80
2018-03-25T14:23:09.204Z,12.90
2018-03-25T14:24:15.242Z,12.80
2018-03-25T14:25:19.463Z,12.80